sensor_id;sensor_type;location;lat;lon;timestamp;P1;durP1;ratioP1;P2;durP2;ratioP2
31732;SDS011;18312;51.486;7.144;2024-01-10T00:01:30;980.55;;;816.38;;
31732;SDS011;18312;51.486;7.144;2024-01-10T00:03:57;985.45;;;816.92;;
31732;SDS011;18312;51.486;7.144;2024-01-10T00:06:25;979.05;;;818.15;;
31732;SDS011;18312;51.486;7.144;2024-01-10T00:08:52;982.13;;;817.17;;
31732;SDS011;18312;51.486;7.144;2024-01-10T00:11:21;979.27;;;816.17;;
31732;SDS011;18312;51.486;7.144;2024-01-10T00:13:48;981.15;;;819.10;;
31732;SDS011;18312;51.486;7.144;2024-01-10T00:16:16;981.65;;;817.80;;
31732;SDS011;18312;51.486;7.144;2024-01-10T00:18:43;981.40;;;816.80;;
31732;SDS011;18312;51.486;7.144;2024-01-10T00:21:16;982.00;;;815.20;;
31732;SDS011;18312;51.486;7.144;2024-01-10T00:23:44;981.78;;;818.78;;
31732;SDS011;18312;51.486;7.144;2024-01-10T00:26:13;976.00;;;813.20;;
31732;SDS011;18312;51.486;7.144;2024-01-10T00:28:42;980.50;;;817.33;;
31732;SDS011;18312;51.486;7.144;2024-01-10T00:31:22;974.73;;;812.33;;
31732;SDS011;18312;51.486;7.144;2024-01-10T00:33:49;976.95;;;813.95;;
31732;SDS011;18312;51.486;7.144;2024-01-10T00:36:17;978.67;;;814.97;;
31732;SDS011;18312;51.486;7.144;2024-01-10T00:38:44;983.13;;;815.40;;
31732;SDS011;18312;51.486;7.144;2024-01-10T00:41:11;974.88;;;810.53;;
31732;SDS011;18312;51.486;7.144;2024-01-10T00:43:39;974.97;;;810.17;;
31732;SDS011;18312;51.486;7.144;2024-01-10T00:46:07;979.38;;;813.53;;
31732;SDS011;18312;51.486;7.144;2024-01-10T00:48:35;975.83;;;810.93;;
31732;SDS011;18312;51.486;7.144;2024-01-10T00:51:13;977.05;;;811.33;;
31732;SDS011;18312;51.486;7.144;2024-01-10T00:53:40;977.45;;;809.45;;
31732;SDS011;18312;51.486;7.144;2024-01-10T00:56:07;975.33;;;807.67;;
31732;SDS011;18312;51.486;7.144;2024-01-10T00:58:35;974.95;;;809.00;;
31732;SDS011;18312;51.486;7.144;2024-01-10T01:01:02;973.85;;;808.83;;
31732;SDS011;18312;51.486;7.144;2024-01-10T01:03:32;972.63;;;802.38;;
31732;SDS011;18312;51.486;7.144;2024-01-10T01:05:59;976.13;;;805.17;;
31732;SDS011;18312;51.486;7.144;2024-01-10T01:08:26;972.37;;;801.87;;
31732;SDS011;18312;51.486;7.144;2024-01-10T01:10:53;972.60;;;803.03;;
31732;SDS011;18312;51.486;7.144;2024-01-10T01:16:03;974.75;;;800.72;;
31732;SDS011;18312;51.486;7.144;2024-01-10T01:18:32;973.95;;;800.78;;
31732;SDS011;18312;51.486;7.144;2024-01-10T01:21:14;973.90;;;797.83;;
31732;SDS011;18312;51.486;7.144;2024-01-10T01:23:41;975.05;;;798.33;;
31732;SDS011;18312;51.486;7.144;2024-01-10T01:26:22;975.50;;;801.33;;
31732;SDS011;18312;51.486;7.144;2024-01-10T01:28:50;972.42;;;799.72;;
31732;SDS011;18312;51.486;7.144;2024-01-10T01:31:17;971.05;;;799.95;;
31732;SDS011;18312;51.486;7.144;2024-01-10T01:33:52;975.80;;;798.77;;
31732;SDS011;18312;51.486;7.144;2024-01-10T01:36:19;974.30;;;800.83;;
31732;SDS011;18312;51.486;7.144;2024-01-10T01:38:47;974.50;;;799.65;;
31732;SDS011;18312;51.486;7.144;2024-01-10T01:41:14;979.28;;;799.10;;
31732;SDS011;18312;51.486;7.144;2024-01-10T01:43:46;983.17;;;800.35;;
31732;SDS011;18312;51.486;7.144;2024-01-10T01:46:13;969.58;;;794.42;;
31732;SDS011;18312;51.486;7.144;2024-01-10T01:51:32;971.33;;;797.05;;
31732;SDS011;18312;51.486;7.144;2024-01-10T01:54:02;973.45;;;796.70;;
31732;SDS011;18312;51.486;7.144;2024-01-10T01:56:40;974.20;;;797.88;;
31732;SDS011;18312;51.486;7.144;2024-01-10T01:59:10;969.47;;;794.95;;
31732;SDS011;18312;51.486;7.144;2024-01-10T02:01:38;966.73;;;792.87;;
31732;SDS011;18312;51.486;7.144;2024-01-10T02:04:15;971.78;;;795.60;;
31732;SDS011;18312;51.486;7.144;2024-01-10T02:06:43;970.95;;;795.85;;
31732;SDS011;18312;51.486;7.144;2024-01-10T02:09:10;967.83;;;789.83;;
31732;SDS011;18312;51.486;7.144;2024-01-10T02:11:39;967.72;;;793.65;;
31732;SDS011;18312;51.486;7.144;2024-01-10T02:14:07;969.97;;;792.30;;
31732;SDS011;18312;51.486;7.144;2024-01-10T02:16:34;968.07;;;793.97;;
31732;SDS011;18312;51.486;7.144;2024-01-10T02:19:01;970.47;;;790.55;;
31732;SDS011;18312;51.486;7.144;2024-01-10T02:21:44;969.22;;;788.97;;
31732;SDS011;18312;51.486;7.144;2024-01-10T02:24:11;972.55;;;788.20;;
31732;SDS011;18312;51.486;7.144;2024-01-10T02:26:40;965.60;;;784.50;;
31732;SDS011;18312;51.486;7.144;2024-01-10T02:29:07;967.33;;;783.13;;
31732;SDS011;18312;51.486;7.144;2024-01-10T02:31:34;962.22;;;782.95;;
31732;SDS011;18312;51.486;7.144;2024-01-10T02:34:01;967.58;;;782.40;;
31732;SDS011;18312;51.486;7.144;2024-01-10T02:36:28;964.97;;;781.17;;
31732;SDS011;18312;51.486;7.144;2024-01-10T02:38:55;964.50;;;778.45;;
31732;SDS011;18312;51.486;7.144;2024-01-10T02:41:22;963.50;;;778.27;;
31732;SDS011;18312;51.486;7.144;2024-01-10T02:43:50;967.15;;;779.28;;
31732;SDS011;18312;51.486;7.144;2024-01-10T02:46:17;961.67;;;775.15;;
31732;SDS011;18312;51.486;7.144;2024-01-10T02:48:47;963.97;;;777.22;;
31732;SDS011;18312;51.486;7.144;2024-01-10T02:51:14;959.87;;;773.57;;
31732;SDS011;18312;51.486;7.144;2024-01-10T02:53:41;961.05;;;777.17;;
31732;SDS011;18312;51.486;7.144;2024-01-10T02:56:08;962.47;;;770.40;;
31732;SDS011;18312;51.486;7.144;2024-01-10T02:58:35;958.50;;;771.40;;
31732;SDS011;18312;51.486;7.144;2024-01-10T03:01:06;958.50;;;770.08;;
31732;SDS011;18312;51.486;7.144;2024-01-10T03:03:34;958.60;;;769.70;;
31732;SDS011;18312;51.486;7.144;2024-01-10T03:06:01;958.97;;;768.80;;
31732;SDS011;18312;51.486;7.144;2024-01-10T03:08:28;958.05;;;767.10;;
31732;SDS011;18312;51.486;7.144;2024-01-10T03:10:55;962.33;;;768.13;;
31732;SDS011;18312;51.486;7.144;2024-01-10T03:13:32;959.70;;;769.78;;
31732;SDS011;18312;51.486;7.144;2024-01-10T03:15:58;956.72;;;767.05;;
31732;SDS011;18312;51.486;7.144;2024-01-10T03:18:27;960.22;;;771.30;;
31732;SDS011;18312;51.486;7.144;2024-01-10T03:20:53;961.72;;;769.90;;
31732;SDS011;18312;51.486;7.144;2024-01-10T03:23:21;958.45;;;767.88;;
31732;SDS011;18312;51.486;7.144;2024-01-10T03:25:48;956.67;;;761.10;;
31732;SDS011;18312;51.486;7.144;2024-01-10T03:28:15;959.65;;;766.90;;
31732;SDS011;18312;51.486;7.144;2024-01-10T03:30:43;959.13;;;766.03;;
31732;SDS011;18312;51.486;7.144;2024-01-10T03:33:10;958.42;;;765.67;;
31732;SDS011;18312;51.486;7.144;2024-01-10T03:35:38;958.95;;;764.03;;
31732;SDS011;18312;51.486;7.144;2024-01-10T03:38:11;963.17;;;770.08;;
31732;SDS011;18312;51.486;7.144;2024-01-10T03:40:41;955.00;;;758.43;;
31732;SDS011;18312;51.486;7.144;2024-01-10T03:43:08;957.58;;;763.53;;
31732;SDS011;18312;51.486;7.144;2024-01-10T03:45:37;953.55;;;762.63;;
31732;SDS011;18312;51.486;7.144;2024-01-10T03:48:04;962.55;;;763.28;;
31732;SDS011;18312;51.486;7.144;2024-01-10T03:50:32;956.28;;;761.83;;
31732;SDS011;18312;51.486;7.144;2024-01-10T03:53:00;960.65;;;763.63;;
31732;SDS011;18312;51.486;7.144;2024-01-10T03:55:27;953.72;;;764.50;;
31732;SDS011;18312;51.486;7.144;2024-01-10T03:57:54;961.25;;;764.72;;
31732;SDS011;18312;51.486;7.144;2024-01-10T04:00:22;958.55;;;765.97;;
31732;SDS011;18312;51.486;7.144;2024-01-10T04:02:50;956.80;;;764.50;;
31732;SDS011;18312;51.486;7.144;2024-01-10T04:05:17;957.10;;;763.87;;
31732;SDS011;18312;51.486;7.144;2024-01-10T04:07:45;964.70;;;767.70;;
31732;SDS011;18312;51.486;7.144;2024-01-10T04:10:14;956.85;;;766.17;;
31732;SDS011;18312;51.486;7.144;2024-01-10T04:12:41;955.08;;;765.92;;
31732;SDS011;18312;51.486;7.144;2024-01-10T04:15:08;962.72;;;767.08;;
31732;SDS011;18312;51.486;7.144;2024-01-10T04:17:35;955.50;;;763.85;;
31732;SDS011;18312;51.486;7.144;2024-01-10T04:20:03;960.90;;;767.75;;
31732;SDS011;18312;51.486;7.144;2024-01-10T04:22:30;958.50;;;765.90;;
31732;SDS011;18312;51.486;7.144;2024-01-10T04:24:57;961.53;;;762.83;;
31732;SDS011;18312;51.486;7.144;2024-01-10T04:27:26;955.97;;;764.53;;
31732;SDS011;18312;51.486;7.144;2024-01-10T04:29:53;960.88;;;765.78;;
31732;SDS011;18312;51.486;7.144;2024-01-10T04:32:20;958.75;;;761.67;;
31732;SDS011;18312;51.486;7.144;2024-01-10T04:34:47;962.92;;;763.92;;
31732;SDS011;18312;51.486;7.144;2024-01-10T04:37:13;955.55;;;760.80;;
31732;SDS011;18312;51.486;7.144;2024-01-10T04:39:40;958.78;;;759.75;;
31732;SDS011;18312;51.486;7.144;2024-01-10T04:42:08;959.97;;;758.70;;
31732;SDS011;18312;51.486;7.144;2024-01-10T04:44:36;954.35;;;760.20;;
31732;SDS011;18312;51.486;7.144;2024-01-10T04:47:04;959.97;;;762.13;;
31732;SDS011;18312;51.486;7.144;2024-01-10T04:49:32;957.20;;;759.87;;
31732;SDS011;18312;51.486;7.144;2024-01-10T04:51:59;958.42;;;763.75;;
31732;SDS011;18312;51.486;7.144;2024-01-10T04:54:26;957.77;;;760.07;;
31732;SDS011;18312;51.486;7.144;2024-01-10T04:56:53;957.30;;;764.13;;
31732;SDS011;18312;51.486;7.144;2024-01-10T04:59:20;957.13;;;761.97;;
31732;SDS011;18312;51.486;7.144;2024-01-10T05:01:49;973.00;;;767.85;;
31732;SDS011;18312;51.486;7.144;2024-01-10T05:04:16;958.70;;;766.07;;
31732;SDS011;18312;51.486;7.144;2024-01-10T05:06:43;960.92;;;762.42;;
31732;SDS011;18312;51.486;7.144;2024-01-10T05:09:09;963.00;;;762.45;;
31732;SDS011;18312;51.486;7.144;2024-01-10T05:11:36;960.03;;;765.90;;
31732;SDS011;18312;51.486;7.144;2024-01-10T05:14:03;966.47;;;766.13;;
31732;SDS011;18312;51.486;7.144;2024-01-10T05:16:30;962.90;;;764.88;;
31732;SDS011;18312;51.486;7.144;2024-01-10T05:19:00;963.25;;;767.65;;
31732;SDS011;18312;51.486;7.144;2024-01-10T05:21:28;959.85;;;769.92;;
31732;SDS011;18312;51.486;7.144;2024-01-10T05:23:55;967.63;;;770.55;;
31732;SDS011;18312;51.486;7.144;2024-01-10T05:26:22;964.25;;;768.25;;
31732;SDS011;18312;51.486;7.144;2024-01-10T05:28:48;965.38;;;769.67;;
31732;SDS011;18312;51.486;7.144;2024-01-10T05:31:15;966.15;;;769.97;;
31732;SDS011;18312;51.486;7.144;2024-01-10T05:33:43;963.60;;;772.08;;
31732;SDS011;18312;51.486;7.144;2024-01-10T05:36:11;967.10;;;772.25;;
31732;SDS011;18312;51.486;7.144;2024-01-10T05:38:38;963.55;;;771.20;;
31732;SDS011;18312;51.486;7.144;2024-01-10T05:41:06;967.17;;;772.23;;
31732;SDS011;18312;51.486;7.144;2024-01-10T05:43:33;964.80;;;768.90;;
31732;SDS011;18312;51.486;7.144;2024-01-10T05:46:00;964.20;;;770.88;;
31732;SDS011;18312;51.486;7.144;2024-01-10T05:48:29;966.28;;;771.15;;
31732;SDS011;18312;51.486;7.144;2024-01-10T05:50:57;966.60;;;772.78;;
31732;SDS011;18312;51.486;7.144;2024-01-10T05:53:26;969.80;;;771.33;;
31732;SDS011;18312;51.486;7.144;2024-01-10T05:55:54;965.50;;;769.63;;
31732;SDS011;18312;51.486;7.144;2024-01-10T05:58:20;965.70;;;771.80;;
31732;SDS011;18312;51.486;7.144;2024-01-10T06:00:47;975.67;;;774.85;;
31732;SDS011;18312;51.486;7.144;2024-01-10T06:03:14;974.38;;;773.05;;
31732;SDS011;18312;51.486;7.144;2024-01-10T06:05:41;968.40;;;774.57;;
31732;SDS011;18312;51.486;7.144;2024-01-10T06:08:08;977.05;;;775.10;;
31732;SDS011;18312;51.486;7.144;2024-01-10T06:10:36;975.25;;;775.65;;
31732;SDS011;18312;51.486;7.144;2024-01-10T06:13:03;971.40;;;776.42;;
31732;SDS011;18312;51.486;7.144;2024-01-10T06:15:30;970.87;;;774.03;;
31732;SDS011;18312;51.486;7.144;2024-01-10T06:17:57;972.50;;;773.00;;
31732;SDS011;18312;51.486;7.144;2024-01-10T06:20:23;967.70;;;773.03;;
31732;SDS011;18312;51.486;7.144;2024-01-10T06:22:50;970.83;;;775.65;;
31732;SDS011;18312;51.486;7.144;2024-01-10T06:25:17;969.35;;;774.30;;
31732;SDS011;18312;51.486;7.144;2024-01-10T06:27:45;966.20;;;771.53;;
31732;SDS011;18312;51.486;7.144;2024-01-10T06:30:18;967.53;;;771.40;;
31732;SDS011;18312;51.486;7.144;2024-01-10T06:32:45;965.90;;;774.22;;
31732;SDS011;18312;51.486;7.144;2024-01-10T06:35:12;974.30;;;775.73;;
31732;SDS011;18312;51.486;7.144;2024-01-10T06:37:40;964.38;;;772.88;;
31732;SDS011;18312;51.486;7.144;2024-01-10T06:40:09;967.03;;;772.20;;
31732;SDS011;18312;51.486;7.144;2024-01-10T06:42:37;969.10;;;776.05;;
31732;SDS011;18312;51.486;7.144;2024-01-10T06:45:06;976.42;;;778.67;;
31732;SDS011;18312;51.486;7.144;2024-01-10T06:47:34;968.97;;;772.50;;
31732;SDS011;18312;51.486;7.144;2024-01-10T06:50:01;980.58;;;776.22;;
31732;SDS011;18312;51.486;7.144;2024-01-10T06:52:29;972.28;;;775.95;;
31732;SDS011;18312;51.486;7.144;2024-01-10T06:54:56;971.92;;;776.33;;
31732;SDS011;18312;51.486;7.144;2024-01-10T06:57:23;963.65;;;772.63;;
31732;SDS011;18312;51.486;7.144;2024-01-10T06:59:50;969.30;;;775.65;;
31732;SDS011;18312;51.486;7.144;2024-01-10T07:02:19;967.83;;;777.50;;
31732;SDS011;18312;51.486;7.144;2024-01-10T07:04:46;972.92;;;776.33;;
31732;SDS011;18312;51.486;7.144;2024-01-10T07:07:14;970.42;;;774.58;;
31732;SDS011;18312;51.486;7.144;2024-01-10T07:09:42;969.38;;;775.45;;
31732;SDS011;18312;51.486;7.144;2024-01-10T07:12:09;968.83;;;771.13;;
31732;SDS011;18312;51.486;7.144;2024-01-10T07:14:36;969.25;;;775.40;;
31732;SDS011;18312;51.486;7.144;2024-01-10T07:17:02;968.83;;;775.25;;
31732;SDS011;18312;51.486;7.144;2024-01-10T07:19:31;968.05;;;778.97;;
31732;SDS011;18312;51.486;7.144;2024-01-10T07:21:58;967.47;;;777.40;;
31732;SDS011;18312;51.486;7.144;2024-01-10T07:24:25;973.97;;;777.08;;
31732;SDS011;18312;51.486;7.144;2024-01-10T07:26:52;971.10;;;779.25;;
31732;SDS011;18312;51.486;7.144;2024-01-10T07:29:19;967.63;;;773.42;;
31732;SDS011;18312;51.486;7.144;2024-01-10T07:31:46;970.60;;;779.60;;
31732;SDS011;18312;51.486;7.144;2024-01-10T07:34:13;972.40;;;779.42;;
31732;SDS011;18312;51.486;7.144;2024-01-10T07:36:44;972.65;;;779.85;;
31732;SDS011;18312;51.486;7.144;2024-01-10T07:39:11;967.97;;;775.20;;
31732;SDS011;18312;51.486;7.144;2024-01-10T07:41:40;968.85;;;778.00;;
31732;SDS011;18312;51.486;7.144;2024-01-10T07:44:07;971.53;;;779.33;;
31732;SDS011;18312;51.486;7.144;2024-01-10T07:46:36;971.80;;;778.75;;
31732;SDS011;18312;51.486;7.144;2024-01-10T07:49:03;975.70;;;778.83;;
31732;SDS011;18312;51.486;7.144;2024-01-10T07:51:31;974.07;;;780.47;;
31732;SDS011;18312;51.486;7.144;2024-01-10T07:53:59;971.58;;;776.78;;
31732;SDS011;18312;51.486;7.144;2024-01-10T07:56:26;965.83;;;778.50;;
31732;SDS011;18312;51.486;7.144;2024-01-10T07:58:55;972.50;;;779.28;;
31732;SDS011;18312;51.486;7.144;2024-01-10T08:01:22;967.90;;;775.30;;
31732;SDS011;18312;51.486;7.144;2024-01-10T08:03:48;971.67;;;777.80;;
31732;SDS011;18312;51.486;7.144;2024-01-10T08:06:15;969.78;;;778.35;;
31732;SDS011;18312;51.486;7.144;2024-01-10T08:08:42;964.43;;;778.67;;
31732;SDS011;18312;51.486;7.144;2024-01-10T08:11:10;973.47;;;782.33;;
31732;SDS011;18312;51.486;7.144;2024-01-10T08:13:37;975.53;;;781.05;;
31732;SDS011;18312;51.486;7.144;2024-01-10T08:16:04;976.08;;;786.13;;
31732;SDS011;18312;51.486;7.144;2024-01-10T08:18:33;979.13;;;784.40;;
31732;SDS011;18312;51.486;7.144;2024-01-10T08:21:00;976.75;;;785.55;;
31732;SDS011;18312;51.486;7.144;2024-01-10T08:23:29;975.85;;;784.78;;
31732;SDS011;18312;51.486;7.144;2024-01-10T08:25:56;980.15;;;786.22;;
31732;SDS011;18312;51.486;7.144;2024-01-10T08:28:23;980.33;;;786.33;;
31732;SDS011;18312;51.486;7.144;2024-01-10T08:30:51;982.90;;;784.25;;
31732;SDS011;18312;51.486;7.144;2024-01-10T08:33:18;974.20;;;782.65;;
31732;SDS011;18312;51.486;7.144;2024-01-10T08:35:44;974.20;;;785.70;;
31732;SDS011;18312;51.486;7.144;2024-01-10T08:38:11;986.42;;;789.13;;
31732;SDS011;18312;51.486;7.144;2024-01-10T08:40:38;978.67;;;793.70;;
31732;SDS011;18312;51.486;7.144;2024-01-10T08:43:05;979.23;;;791.37;;
31732;SDS011;18312;51.486;7.144;2024-01-10T08:45:33;980.95;;;795.85;;
31732;SDS011;18312;51.486;7.144;2024-01-10T08:48:00;987.20;;;794.63;;
31732;SDS011;18312;51.486;7.144;2024-01-10T08:50:27;984.58;;;797.75;;
31732;SDS011;18312;51.486;7.144;2024-01-10T08:52:54;986.30;;;795.92;;
31732;SDS011;18312;51.486;7.144;2024-01-10T08:55:21;987.67;;;800.93;;
31732;SDS011;18312;51.486;7.144;2024-01-10T08:57:48;992.88;;;804.33;;
31732;SDS011;18312;51.486;7.144;2024-01-10T09:00:14;989.72;;;803.65;;
31732;SDS011;18312;51.486;7.144;2024-01-10T09:02:43;985.67;;;802.88;;
31732;SDS011;18312;51.486;7.144;2024-01-10T09:05:10;992.30;;;806.33;;
31732;SDS011;18312;51.486;7.144;2024-01-10T09:07:39;989.78;;;806.55;;
31732;SDS011;18312;51.486;7.144;2024-01-10T09:10:07;995.45;;;808.80;;
31732;SDS011;18312;51.486;7.144;2024-01-10T09:12:34;993.88;;;808.65;;
31732;SDS011;18312;51.486;7.144;2024-01-10T09:15:01;995.65;;;812.42;;
31732;SDS011;18312;51.486;7.144;2024-01-10T09:17:28;996.33;;;811.30;;
31732;SDS011;18312;51.486;7.144;2024-01-10T09:19:57;996.17;;;813.38;;
31732;SDS011;18312;51.486;7.144;2024-01-10T09:22:24;999.13;;;816.03;;
31732;SDS011;18312;51.486;7.144;2024-01-10T09:24:51;998.75;;;818.05;;
31732;SDS011;18312;51.486;7.144;2024-01-10T09:27:18;992.58;;;817.80;;
31732;SDS011;18312;51.486;7.144;2024-01-10T09:29:45;999.70;;;819.45;;
31732;SDS011;18312;51.486;7.144;2024-01-10T09:32:11;1007.13;;;824.28;;
31732;SDS011;18312;51.486;7.144;2024-01-10T09:34:38;998.97;;;821.50;;
31732;SDS011;18312;51.486;7.144;2024-01-10T09:37:07;1006.20;;;823.05;;
31732;SDS011;18312;51.486;7.144;2024-01-10T09:39:34;1004.17;;;824.53;;
31732;SDS011;18312;51.486;7.144;2024-01-10T09:42:01;1002.40;;;826.63;;
31732;SDS011;18312;51.486;7.144;2024-01-10T09:44:28;1007.67;;;827.38;;
31732;SDS011;18312;51.486;7.144;2024-01-10T09:46:55;1003.03;;;827.10;;
31732;SDS011;18312;51.486;7.144;2024-01-10T09:49:22;1002.78;;;824.78;;
31732;SDS011;18312;51.486;7.144;2024-01-10T09:51:50;1008.08;;;830.45;;
31732;SDS011;18312;51.486;7.144;2024-01-10T09:54:24;1007.70;;;831.60;;
31732;SDS011;18312;51.486;7.144;2024-01-10T09:56:52;1012.63;;;835.42;;
31732;SDS011;18312;51.486;7.144;2024-01-10T09:59:20;1007.45;;;833.45;;
31732;SDS011;18312;51.486;7.144;2024-01-10T10:01:47;1009.20;;;836.22;;
31732;SDS011;18312;51.486;7.144;2024-01-10T10:04:14;1010.63;;;840.23;;
31732;SDS011;18312;51.486;7.144;2024-01-10T10:06:43;1010.20;;;839.63;;
31732;SDS011;18312;51.486;7.144;2024-01-10T10:09:10;1012.20;;;845.03;;
31732;SDS011;18312;51.486;7.144;2024-01-10T10:11:40;1012.50;;;845.58;;
31732;SDS011;18312;51.486;7.144;2024-01-10T10:14:13;1014.58;;;840.65;;
31732;SDS011;18312;51.486;7.144;2024-01-10T10:16:41;1015.13;;;847.05;;
31732;SDS011;18312;51.486;7.144;2024-01-10T10:19:08;1017.07;;;846.97;;
31732;SDS011;18312;51.486;7.144;2024-01-10T10:21:36;1016.13;;;848.40;;
31732;SDS011;18312;51.486;7.144;2024-01-10T10:24:04;1021.63;;;849.83;;
31732;SDS011;18312;51.486;7.144;2024-01-10T10:26:32;1021.70;;;851.58;;
31732;SDS011;18312;51.486;7.144;2024-01-10T10:29:01;1021.75;;;856.15;;
31732;SDS011;18312;51.486;7.144;2024-01-10T10:31:29;1021.33;;;853.22;;
31732;SDS011;18312;51.486;7.144;2024-01-10T10:33:56;1026.40;;;858.90;;
31732;SDS011;18312;51.486;7.144;2024-01-10T10:36:26;1021.55;;;859.70;;
31732;SDS011;18312;51.486;7.144;2024-01-10T10:38:53;1025.80;;;862.55;;
31732;SDS011;18312;51.486;7.144;2024-01-10T10:41:20;1024.00;;;861.95;;
31732;SDS011;18312;51.486;7.144;2024-01-10T10:43:47;1023.92;;;862.38;;
31732;SDS011;18312;51.486;7.144;2024-01-10T10:46:17;1029.18;;;862.63;;
31732;SDS011;18312;51.486;7.144;2024-01-10T10:48:47;1024.78;;;861.95;;
31732;SDS011;18312;51.486;7.144;2024-01-10T10:51:15;1028.07;;;867.50;;
31732;SDS011;18312;51.486;7.144;2024-01-10T10:53:45;1024.25;;;868.15;;
31732;SDS011;18312;51.486;7.144;2024-01-10T10:56:13;1039.32;;;875.72;;
31732;SDS011;18312;51.486;7.144;2024-01-10T10:58:41;1032.10;;;874.83;;
31732;SDS011;18312;51.486;7.144;2024-01-10T11:01:10;1032.78;;;875.42;;
31732;SDS011;18312;51.486;7.144;2024-01-10T11:03:39;1039.03;;;881.83;;
31732;SDS011;18312;51.486;7.144;2024-01-10T11:06:08;1039.15;;;882.08;;
31732;SDS011;18312;51.486;7.144;2024-01-10T11:08:35;1037.88;;;883.47;;
31732;SDS011;18312;51.486;7.144;2024-01-10T11:11:04;1039.03;;;886.45;;
31732;SDS011;18312;51.486;7.144;2024-01-10T11:13:49;1042.47;;;889.73;;
31732;SDS011;18312;51.486;7.144;2024-01-10T11:16:35;1039.23;;;892.70;;
31732;SDS011;18312;51.486;7.144;2024-01-10T11:19:41;1040.87;;;893.87;;
31732;SDS011;18312;51.486;7.144;2024-01-10T11:22:25;1041.40;;;895.88;;
31732;SDS011;18312;51.486;7.144;2024-01-10T11:25:06;1052.20;;;896.67;;
31732;SDS011;18312;51.486;7.144;2024-01-10T11:27:33;1045.55;;;895.00;;
31732;SDS011;18312;51.486;7.144;2024-01-10T11:30:02;1047.85;;;898.38;;
31732;SDS011;18312;51.486;7.144;2024-01-10T11:32:31;1040.55;;;892.80;;
31732;SDS011;18312;51.486;7.144;2024-01-10T11:35:00;1050.97;;;899.55;;
31732;SDS011;18312;51.486;7.144;2024-01-10T11:37:38;1052.20;;;901.47;;
31732;SDS011;18312;51.486;7.144;2024-01-10T11:40:07;1049.13;;;903.58;;
31732;SDS011;18312;51.486;7.144;2024-01-10T11:42:40;1047.60;;;906.45;;
31732;SDS011;18312;51.486;7.144;2024-01-10T11:45:08;1055.43;;;908.60;;
31732;SDS011;18312;51.486;7.144;2024-01-10T11:47:37;1050.28;;;909.35;;
31732;SDS011;18312;51.486;7.144;2024-01-10T11:50:07;1053.60;;;909.97;;
31732;SDS011;18312;51.486;7.144;2024-01-10T11:52:35;1053.07;;;911.25;;
31732;SDS011;18312;51.486;7.144;2024-01-10T11:55:03;1058.50;;;914.17;;
31732;SDS011;18312;51.486;7.144;2024-01-10T11:57:32;1052.80;;;912.78;;
31732;SDS011;18312;51.486;7.144;2024-01-10T11:59:59;1060.68;;;917.00;;
31732;SDS011;18312;51.486;7.144;2024-01-10T12:02:27;1056.32;;;914.58;;
31732;SDS011;18312;51.486;7.144;2024-01-10T12:04:55;1061.15;;;915.55;;
31732;SDS011;18312;51.486;7.144;2024-01-10T12:07:23;1057.40;;;920.33;;
31732;SDS011;18312;51.486;7.144;2024-01-10T12:09:51;1060.82;;;920.75;;
31732;SDS011;18312;51.486;7.144;2024-01-10T12:12:17;1058.75;;;919.85;;
31732;SDS011;18312;51.486;7.144;2024-01-10T12:14:44;1060.00;;;924.97;;
31732;SDS011;18312;51.486;7.144;2024-01-10T12:17:11;1065.10;;;920.90;;
31732;SDS011;18312;51.486;7.144;2024-01-10T12:19:38;1061.78;;;922.35;;
31732;SDS011;18312;51.486;7.144;2024-01-10T12:22:06;1065.60;;;926.80;;
31732;SDS011;18312;51.486;7.144;2024-01-10T12:24:34;1063.40;;;926.05;;
31732;SDS011;18312;51.486;7.144;2024-01-10T12:27:10;1063.07;;;930.90;;
31732;SDS011;18312;51.486;7.144;2024-01-10T12:29:37;1063.82;;;933.33;;
31732;SDS011;18312;51.486;7.144;2024-01-10T12:32:05;1070.47;;;937.03;;
31732;SDS011;18312;51.486;7.144;2024-01-10T12:34:37;1066.32;;;936.67;;
31732;SDS011;18312;51.486;7.144;2024-01-10T12:37:06;1068.38;;;936.00;;
31732;SDS011;18312;51.486;7.144;2024-01-10T12:39:38;1069.15;;;938.63;;
31732;SDS011;18312;51.486;7.144;2024-01-10T12:44:43;1069.88;;;941.28;;
31732;SDS011;18312;51.486;7.144;2024-01-10T12:47:17;1066.93;;;939.70;;
31732;SDS011;18312;51.486;7.144;2024-01-10T12:49:45;1068.68;;;944.33;;
31732;SDS011;18312;51.486;7.144;2024-01-10T12:52:12;1073.05;;;945.92;;
31732;SDS011;18312;51.486;7.144;2024-01-10T12:54:41;1073.40;;;945.97;;
31732;SDS011;18312;51.486;7.144;2024-01-10T12:57:08;1075.60;;;944.60;;
31732;SDS011;18312;51.486;7.144;2024-01-10T12:59:36;1067.63;;;942.50;;
31732;SDS011;18312;51.486;7.144;2024-01-10T13:02:03;1075.20;;;948.08;;
31732;SDS011;18312;51.486;7.144;2024-01-10T13:04:30;1072.45;;;948.30;;
31732;SDS011;18312;51.486;7.144;2024-01-10T13:06:57;1073.38;;;945.75;;
31732;SDS011;18312;51.486;7.144;2024-01-10T13:09:32;1080.90;;;952.40;;
31732;SDS011;18312;51.486;7.144;2024-01-10T13:12:09;1081.85;;;955.28;;
31732;SDS011;18312;51.486;7.144;2024-01-10T13:14:36;1076.13;;;952.22;;
31732;SDS011;18312;51.486;7.144;2024-01-10T13:17:03;1078.88;;;954.65;;
31732;SDS011;18312;51.486;7.144;2024-01-10T13:19:33;1076.60;;;954.65;;
31732;SDS011;18312;51.486;7.144;2024-01-10T13:22:01;1079.63;;;952.95;;
31732;SDS011;18312;51.486;7.144;2024-01-10T13:24:29;1075.28;;;952.85;;
31732;SDS011;18312;51.486;7.144;2024-01-10T13:26:58;1079.10;;;953.25;;
31732;SDS011;18312;51.486;7.144;2024-01-10T13:29:27;1077.53;;;956.25;;
31732;SDS011;18312;51.486;7.144;2024-01-10T13:31:54;1076.20;;;951.38;;
31732;SDS011;18312;51.486;7.144;2024-01-10T13:34:21;1080.95;;;952.88;;
31732;SDS011;18312;51.486;7.144;2024-01-10T13:36:47;1074.28;;;951.63;;
31732;SDS011;18312;51.486;7.144;2024-01-10T13:39:14;1080.15;;;949.53;;
31732;SDS011;18312;51.486;7.144;2024-01-10T13:41:41;1074.60;;;946.28;;
31732;SDS011;18312;51.486;7.144;2024-01-10T13:44:08;1074.57;;;944.05;;
31732;SDS011;18312;51.486;7.144;2024-01-10T13:46:37;1067.32;;;942.08;;
31732;SDS011;18312;51.486;7.144;2024-01-10T13:49:04;1072.03;;;943.63;;
31732;SDS011;18312;51.486;7.144;2024-01-10T13:51:31;1076.72;;;945.30;;
31732;SDS011;18312;51.486;7.144;2024-01-10T13:53:59;1074.57;;;943.97;;
31732;SDS011;18312;51.486;7.144;2024-01-10T13:56:26;1070.13;;;941.45;;
31732;SDS011;18312;51.486;7.144;2024-01-10T13:58:54;1076.88;;;939.03;;
31732;SDS011;18312;51.486;7.144;2024-01-10T14:01:22;1068.03;;;936.03;;
31732;SDS011;18312;51.486;7.144;2024-01-10T14:06:31;1063.40;;;930.83;;
31732;SDS011;18312;51.486;7.144;2024-01-10T14:08:59;1064.97;;;933.97;;
31732;SDS011;18312;51.486;7.144;2024-01-10T14:11:25;1062.83;;;935.13;;